Time;durP1;ratioP1;P1;durP2;ratioP2;P2;SDS_P1;SDS_P2;PMS_P1;PMS_P2;Temp;Humidity;BMP_temperature;BMP_pressure;BME280_temperature;BME280_humidity;BME280_pressure;Samples;Min_cycle;Max_cycle;Signal;HPM_P1;HPM_P2
2023/03/24 00:10:03;;;;;;;11.10;7.70;;;;;;;8.34;75.32;98775.55;437562;1256;139037;-72
2023/03/24 00:20:13;;;;;;;13.00;8.10;;;;;;;8.23;76.17;98787.75;437691;1254;140427;-77
2023/03/24 00:30:20;;;;;;;13.10;9.20;;;;;;;8.04;76.62;98786.25;437680;1259;140504;-73
2023/03/24 00:40:27;;;;;;;10.10;7.40;;;;;;;7.82;77.09;98781.23;438006;1254;140100;-74
2023/03/24 00:50:33;;;;;;;10.30;7.00;;;;;;;7.65;78.03;98766.83;437571;1258;139544;-74
2023/03/24 01:00:40;;;;;;;8.40;7.00;;;;;;;7.46;78.07;98758.31;437589;1254;139419;-73
2023/03/24 01:10:52;;;;;;;10.80;8.10;;;;;;;7.36;78.97;98757.89;438433;1258;154072;-73
2023/03/24 01:20:58;;;;;;;9.30;7.70;;;;;;;7.27;79.36;98740.33;437834;1256;140069;-73
2023/03/24 01:31:04;;;;;;;15.30;9.50;;;;;;;7.11;79.32;98738.90;437526;1259;139664;-73
2023/03/24 01:41:10;;;;;;;15.60;10.30;;;;;;;7.00;79.84;98733.48;437560;1259;140762;-73
2023/03/24 01:51:21;;;;;;;15.10;11.00;;;;;;;6.99;80.89;98728.52;437675;1258;140307;-72
2023/03/24 02:01:29;;;;;;;14.90;11.80;;;;;;;6.95;81.00;98728.23;437749;1259;140379;-73
2023/03/24 02:11:38;;;;;;;14.30;10.20;;;;;;;6.93;82.06;98728.02;437852;1255;139121;-74
2023/03/24 02:22:19;;;;;;;17.20;12.80;;;;;;;6.92;82.23;98736.80;438046;1254;139009;-74
2023/03/24 02:33:08;;;;;;;21.20;12.60;;;;;;;7.14;83.24;98726.21;438249;1259;139127;-73
2023/03/24 02:43:27;;;;;;;13.70;10.70;;;;;;;7.30;83.28;98722.73;437482;1259;139084;-71
2023/03/24 02:53:38;;;;;;;13.60;10.70;;;;;;;7.33;83.15;98715.26;437676;1254;139121;-71
2023/03/24 03:03:50;;;;;;;13.00;11.50;;;;;;;7.46;83.36;98712.14;437881;1254;140335;-74
2023/03/24 03:14:02;;;;;;;13.10;11.40;;;;;;;7.65;83.47;98707.05;437976;1255;139930;-73
2023/03/24 03:24:11;;;;;;;11.70;9.50;;;;;;;7.98;84.14;98696.20;437823;1259;139187;-72
2023/03/24 03:34:28;;;;;;;13.80;9.00;;;;;;;8.22;84.09;98690.39;437951;1256;140343;-73
2023/03/24 03:44:34;;;;;;;14.10;9.80;;;;;;;8.32;83.60;98698.04;438013;1258;138991;-73
2023/03/24 03:54:41;;;;;;;10.20;8.30;;;;;;;8.37;83.35;98688.15;437925;1253;139986;-72
2023/03/24 04:05:12;;;;;;;9.50;8.10;;;;;;;8.38;83.73;98681.11;438018;1257;139150;-73
2023/03/24 04:15:34;;;;;;;10.30;8.10;;;;;;;8.35;83.71;98667.33;438311;1254;138976;-72
2023/03/24 04:25:49;;;;;;;9.80;8.50;;;;;;;8.28;84.00;98652.70;438107;1253;139531;-72
2023/03/24 04:36:05;;;;;;;12.40;9.70;;;;;;;8.44;84.60;98643.90;438105;1254;139914;-72
2023/03/24 04:46:16;;;;;;;11.90;8.90;;;;;;;8.65;84.40;98640.37;439246;1259;139650;-73
2023/03/24 04:56:39;;;;;;;11.40;9.30;;;;;;;8.76;84.21;98631.91;439005;1256;139740;-72
2023/03/24 05:06:48;;;;;;;9.30;7.80;;;;;;;8.86;83.89;98632.59;438106;1254;139267;-73
2023/03/24 05:16:54;;;;;;;11.60;8.40;;;;;;;8.92;83.71;98629.02;438072;1257;138941;-73
2023/03/24 05:27:00;;;;;;;10.10;8.10;;;;;;;9.01;83.73;98637.61;438187;1256;139244;-73
2023/03/24 05:37:10;;;;;;;9.20;6.40;;;;;;;9.18;83.56;98639.74;437910;1254;140301;-73
2023/03/24 05:47:18;;;;;;;8.40;6.50;;;;;;;9.35;83.36;98635.48;438035;1256;139995;-71
2023/03/24 05:57:24;;;;;;;9.30;5.90;;;;;;;9.50;83.31;98637.39;438396;1259;140162;-75
2023/03/24 06:07:31;;;;;;;5.60;4.90;;;;;;;9.68;83.65;98629.73;437468;1259;139206;-71
2023/03/24 06:17:37;;;;;;;5.80;4.90;;;;;;;9.86;84.11;98628.57;437855;1256;139010;-72
2023/03/24 06:27:46;;;;;;;7.50;4.80;;;;;;;9.98;84.50;98628.02;442986;1254;139080;-73
2023/03/24 06:37:51;;;;;;;6.50;4.50;;;;;;;10.18;84.78;98618.61;441376;1254;139051;-73
2023/03/24 06:47:57;;;;;;;6.20;4.90;;;;;;;10.40;84.75;98604.81;437944;1255;139868;-72
2023/03/24 06:58:03;;;;;;;4.70;4.30;;;;;;;10.63;84.61;98590.95;437602;1256;139175;-72
2023/03/24 07:08:10;;;;;;;6.40;4.40;;;;;;;11.27;84.55;98567.59;437504;1254;139143;-72
2023/03/24 07:18:20;;;;;;;7.40;4.70;;;;;;;12.06;82.93;98550.91;437523;1259;141015;-73
2023/03/24 07:28:26;;;;;;;6.50;4.50;;;;;;;12.86;80.97;98541.15;437887;1259;140985;-72
2023/03/24 07:38:33;;;;;;;6.50;3.70;;;;;;;13.50;79.22;98532.37;437945;1259;139835;-73
2023/03/24 07:48:38;;;;;;;5.20;3.30;;;;;;;18.53;74.78;98521.20;437404;1258;139498;-72
2023/03/24 07:58:44;;;;;;;6.70;4.30;;;;;;;18.63;68.14;98521.58;437353;1258;139502;-72
2023/03/24 08:08:50;;;;;;;4.70;2.90;;;;;;;20.14;67.67;98496.06;437698;1258;139053;-72
2023/03/24 08:18:58;;;;;;;3.30;2.80;;;;;;;23.25;61.12;98479.89;437403;1259;138998;-72
2023/03/24 08:29:04;;;;;;;4.90;2.60;;;;;;;23.96;57.87;98467.95;437910;1257;138471;-74
2023/03/24 08:39:09;;;;;;;3.90;2.50;;;;;;;24.75;53.47;98459.78;437954;1256;139358;-72
2023/03/24 08:49:15;;;;;;;5.30;2.40;;;;;;;21.64;53.69;98459.00;437604;1259;138910;-72
2023/03/24 08:59:20;;;;;;;3.70;2.50;;;;;;;19.61;55.22;98454.96;438131;1259;139437;-72
2023/03/24 09:09:28;;;;;;;10.90;3.40;;;;;;;18.11;56.84;98466.70;437611;1259;138234;-72
2023/03/24 09:19:34;;;;;;;8.00;3.40;;;;;;;16.64;58.81;98443.80;437469;1259;139647;-72
2023/03/24 09:29:39;;;;;;;3.70;3.00;;;;;;;16.09;60.47;98438.75;437570;1259;138289;-73
2023/03/24 09:39:45;;;;;;;4.30;3.20;;;;;;;15.90;61.25;98432.20;437950;1259;138281;-73
2023/03/24 09:49:53;;;;;;;3.50;2.50;;;;;;;16.10;61.84;98422.38;437543;1259;138295;-72
2023/03/24 09:59:59;;;;;;;3.30;2.10;;;;;;;16.19;61.29;98413.98;437866;1259;138547;-73
2023/03/24 10:10:17;;;;;;;4.00;3.30;;;;;;;15.87;61.48;98412.91;437586;1260;139446;-74
2023/03/24 10:20:33;;;;;;;3.90;2.60;;;;;;;15.59;62.08;98401.54;438522;1259;138289;-75
2023/03/24 10:30:43;;;;;;;3.30;3.00;;;;;;;15.50;62.60;98399.64;439408;1256;138191;-72
2023/03/24 10:40:54;;;;;;;4.30;3.50;;;;;;;15.36;63.01;98388.38;439634;1255;138460;-73
2023/03/24 10:51:00;;;;;;;5.00;3.00;;;;;;;15.38;63.49;98382.54;439430;1254;138884;-73
2023/03/24 11:01:20;;;;;;;3.40;2.90;;;;;;;15.47;63.50;98372.88;439136;1254;138575;-72
2023/03/24 11:11:32;;;;;;;4.00;2.90;;;;;;;15.81;63.55;98365.25;439505;1254;139543;-72
2023/03/24 11:21:39;;;;;;;9.50;3.00;;;;;;;16.35;63.24;98353.08;440691;1254;138384;-73
2023/03/24 11:31:55;;;;;;;3.80;1.70;;;;;;;17.34;61.75;98333.86;440882;1254;139943;-74
2023/03/24 11:42:17;;;;;;;2.30;2.10;;;;;;;18.07;60.28;98313.66;440797;1254;139406;-73
2023/03/24 11:52:28;;;;;;;2.70;1.70;;;;;;;18.41;59.07;98310.49;438075;1254;140079;-72
2023/03/24 12:02:48;;;;;;;3.70;2.40;;;;;;;18.89;58.04;98291.72;437608;1254;138315;-72
2023/03/24 12:13:03;;;;;;;2.60;1.80;;;;;;;19.26;56.47;98274.96;437493;1259;140131;-72
2023/03/24 12:23:18;;;;;;;3.60;1.90;;;;;;;19.23;55.02;98269.15;437504;1254;140519;-73
2023/03/24 12:33:39;;;;;;;2.90;1.40;;;;;;;19.11;54.39;98264.88;437870;1259;139748;-73
2023/03/24 12:43:54;;;;;;;2.70;1.50;;;;;;;19.20;54.31;98250.83;438009;1260;138280;-72
2023/03/24 12:54:12;;;;;;;3.80;1.70;;;;;;;19.29;54.14;98239.27;437983;1258;141234;-73
2023/03/24 13:04:22;;;;;;;2.50;2.20;;;;;;;19.32;53.42;98224.85;438362;1254;138411;-73
2023/03/24 13:14:34;;;;;;;6.20;2.00;;;;;;;19.48;53.81;98216.86;437790;1254;159307;-72
2023/03/24 13:24:40;;;;;;;8.10;2.40;;;;;;;19.63;53.37;98208.35;437900;1254;138594;-73
2023/03/24 13:34:53;;;;;;;6.20;2.40;;;;;;;19.87;53.18;98196.31;438366;1258;139928;-73
2023/03/24 13:45:02;;;;;;;2.30;1.80;;;;;;;19.63;52.69;98187.58;437785;1259;138662;-72
2023/03/24 13:55:14;;;;;;;5.50;1.80;;;;;;;19.11;52.81;98180.27;437968;1254;138827;-71
2023/03/24 14:05:59;;;;;;;2.80;1.90;;;;;;;18.76;53.25;98168.09;442570;1254;138348;-71
2023/03/24 14:16:44;;;;;;;3.20;1.70;;;;;;;18.89;53.25;98162.80;440993;1259;138357;-73
2023/03/24 14:26:52;;;;;;;3.10;2.40;;;;;;;18.66;53.22;98149.77;440816;1257;137753;-72
2023/03/24 14:37:05;;;;;;;2.50;1.70;;;;;;;18.29;53.35;98145.55;439111;1254;138925;-71
2023/03/24 14:47:11;;;;;;;6.00;2.00;;;;;;;17.93;53.53;98141.75;438416;1254;140267;-71
2023/03/24 14:57:22;;;;;;;3.20;2.30;;;;;;;17.63;54.15;98145.05;438696;1254;138444;-72
2023/03/24 15:07:27;;;;;;;3.90;1.60;;;;;;;17.33;54.73;98145.86;439397;1254;138557;-71
2023/03/24 15:17:34;;;;;;;1.60;1.40;;;;;;;16.97;55.43;98138.55;438755;1254;138812;-72
2023/03/24 15:27:39;;;;;;;3.00;1.80;;;;;;;16.66;56.29;98137.13;437186;1259;138740;-63
2023/03/24 15:37:49;;;;;;;1.60;1.50;;;;;;;16.49;56.70;98135.16;434960;1259;138823;-64
2023/03/24 15:47:57;;;;;;;2.30;1.80;;;;;;;16.22;57.79;98140.75;435308;1259;139459;-64
2023/03/24 15:58:19;;;;;;;3.80;3.30;;;;;;;15.72;60.12;98157.96;435365;1254;139779;-63
2023/03/24 16:08:34;;;;;;;5.40;2.50;;;;;;;15.05;63.11;98172.79;435449;1254;139175;-66
2023/03/24 16:18:42;;;;;;;3.30;3.00;;;;;;;14.27;66.10;98172.15;435968;1254;140203;-64
2023/03/24 16:28:47;;;;;;;;;;;;;;;13.68;68.89;98186.85;435618;1256;140762;-64
2023/03/24 16:38:53;;;;;;;4.70;4.20;;;;;;;13.18;71.52;98195.45;435547;1254;125882;-64
2023/03/24 16:49:00;;;;;;;12.10;6.30;;;;;;;12.81;73.86;98184.08;435259;1260;140066;-64
2023/03/24 16:59:07;;;;;;;27.40;17.50;;;;;;;12.62;75.59;98169.75;436206;1256;143922;-63
2023/03/24 17:09:13;;;;;;;14.90;7.80;;;;;;;12.46;76.68;98168.40;435768;1257;139484;-64
2023/03/24 17:19:21;;;;;;;9.30;6.00;;;;;;;12.39;77.40;98164.38;435206;1256;140145;-63
2023/03/24 17:29:33;;;;;;;9.20;6.80;;;;;;;12.36;78.18;98154.27;434993;1256;140625;-64
2023/03/24 17:39:39;;;;;;;10.00;8.80;;;;;;;12.31;78.92;98157.86;437233;1255;140090;-64
2023/03/24 17:49:46;;;;;;;10.50;7.90;;;;;;;12.25;79.76;98163.36;435596;1256;139786;-64
2023/03/24 17:59:52;;;;;;;23.80;17.80;;;;;;;12.25;80.43;98156.23;435702;1256;139806;-64
2023/03/24 18:09:58;;;;;;;16.40;12.90;;;;;;;12.22;81.01;98165.56;435056;1259;140472;-63
2023/03/24 18:20:09;;;;;;;17.60;15.00;;;;;;;12.12;81.79;98164.93;436475;1256;141115;-64
2023/03/24 18:30:16;;;;;;;17.00;14.90;;;;;;;11.99;82.71;98169.30;435262;1260;140122;-64
2023/03/24 18:40:22;;;;;;;17.90;15.90;;;;;;;11.87;83.85;98176.27;435395;1255;140929;-65
2023/03/24 18:50:28;;;;;;;24.70;16.10;;;;;;;11.86;84.85;98181.47;434794;1259;140091;-64
2023/03/24 19:00:34;;;;;;;26.00;20.80;;;;;;;11.85;85.62;98178.38;435208;1254;140815;-63
2023/03/24 19:10:41;;;;;;;35.90;22.90;;;;;;;11.87;86.18;98178.73;435693;1258;142203;-63
2023/03/24 19:20:47;;;;;;;34.00;25.20;;;;;;;11.90;86.64;98167.27;435608;1256;140010;-64
2023/03/24 19:30:53;;;;;;;36.10;28.20;;;;;;;11.95;86.96;98163.10;435018;1257;141855;-63
2023/03/24 19:41:03;;;;;;;17.10;15.10;;;;;;;11.94;87.73;98179.67;435111;1256;140760;-63
2023/03/24 19:51:09;;;;;;;11.60;9.10;;;;;;;11.97;89.57;98244.52;435386;1260;139364;-64
2023/03/24 20:01:15;;;;;;;5.80;4.50;;;;;;;11.69;89.00;98253.63;434922;1257;140328;-62
2023/03/24 20:11:21;;;;;;;4.60;1.70;;;;;;;11.07;83.92;98271.54;435362;1259;139752;-65
2023/03/24 20:21:27;;;;;;;3.20;2.50;;;;;;;10.42;81.79;98252.14;435432;1257;139777;-63
2023/03/24 20:31:35;;;;;;;1.80;1.60;;;;;;;10.14;81.90;98261.61;435177;1256;140227;-63
2023/03/24 20:41:41;;;;;;;3.10;1.70;;;;;;;10.00;82.80;98280.83;435271;1256;193312;-63
2023/03/24 20:51:47;;;;;;;2.40;2.10;;;;;;;9.88;83.73;98258.36;435425;1255;139270;-63
2023/03/24 21:01:53;;;;;;;5.40;4.60;;;;;;;9.69;84.69;98248.05;434856;1260;139281;-63
2023/03/24 21:12:00;;;;;;;10.50;6.70;;;;;;;9.59;86.04;98255.12;435275;1256;139328;-63
2023/03/24 21:22:13;;;;;;;11.90;8.80;;;;;;;9.60;87.34;98283.17;435231;1254;140944;-64
2023/03/24 21:32:19;;;;;;;6.20;4.70;;;;;;;9.43;87.80;98274.70;435265;1259;139176;-63
2023/03/24 21:42:25;;;;;;;4.90;4.40;;;;;;;9.29;87.88;98272.19;435075;1258;140013;-64
2023/03/24 21:52:35;;;;;;;8.70;4.90;;;;;;;9.02;88.09;98270.79;435432;1259;138909;-63
2023/03/24 22:02:44;;;;;;;9.30;7.90;;;;;;;8.69;88.99;98283.27;435449;1254;138982;-63
2023/03/24 22:12:51;;;;;;;9.80;7.70;;;;;;;8.29;90.49;98314.86;435794;1256;139780;-65
2023/03/24 22:22:58;;;;;;;11.90;7.00;;;;;;;7.92;92.45;98306.80;435241;1259;140096;-64
2023/03/24 22:33:04;;;;;;;8.60;7.20;;;;;;;7.69;94.20;98327.79;435437;1257;139756;-63
2023/03/24 22:43:10;;;;;;;9.60;7.00;;;;;;;7.44;95.66;98360.89;435804;1259;140251;-64
2023/03/24 22:53:16;;;;;;;13.20;8.30;;;;;;;7.38;96.58;98364.44;435261;1257;140612;-63
2023/03/24 23:03:23;;;;;;;10.60;7.70;;;;;;;7.31;97.24;98365.05;435720;1256;142425;-63
2023/03/24 23:13:29;;;;;;;9.80;6.70;;;;;;;7.37;97.87;98346.58;435476;1256;139763;-64
2023/03/24 23:23:36;;;;;;;9.50;7.90;;;;;;;7.33;97.83;98358.20;435355;1254;140781;-63
2023/03/24 23:33:43;;;;;;;11.60;7.80;;;;;;;7.16;97.93;98354.46;435598;1257;140293;-63
2023/03/24 23:43:51;;;;;;;13.00;8.60;;;;;;;6.97;98.18;98352.41;435663;1256;139118;-63
2023/03/24 23:53:56;;;;;;;9.70;7.60;;;;;;;6.88;98.76;98353.61;434749;1256;140869;-64
